sensor_id;sensor_type;location;lat;lon;timestamp;pressure;altitude;pressure_sealevel;temperature;humidity
57606;BME280;43430;48.204;11.556;2022-09-27T00:01:32;94458.25;;;10.77;100.00
57606;BME280;43430;48.204;11.556;2022-09-27T00:03:58;94448.53;;;10.77;100.00
57606;BME280;43430;48.204;11.556;2022-09-27T00:06:26;94459.31;;;10.71;100.00
57606;BME280;43430;48.204;11.556;2022-09-27T00:08:52;94458.00;;;10.73;100.00
57606;BME280;43430;48.204;11.556;2022-09-27T00:11:21;94452.47;;;10.75;100.00
57606;BME280;43430;48.204;11.556;2022-09-27T00:13:48;94453.22;;;10.70;100.00
57606;BME280;43430;48.204;11.556;2022-09-27T00:16:13;94443.75;;;10.64;100.00
57606;BME280;43430;48.204;11.556;2022-09-27T00:18:39;94439.78;;;10.66;100.00
57606;BME280;43430;48.204;11.556;2022-09-27T00:21:06;94438.75;;;10.67;100.00
57606;BME280;43430;48.204;11.556;2022-09-27T00:23:32;94437.94;;;10.57;100.00
57606;BME280;43430;48.204;11.556;2022-09-27T00:25:58;94444.50;;;10.54;100.00
57606;BME280;43430;48.204;11.556;2022-09-27T00:28:24;94450.53;;;10.44;100.00
57606;BME280;43430;48.204;11.556;2022-09-27T00:30:50;94456.31;;;10.36;100.00
57606;BME280;43430;48.204;11.556;2022-09-27T00:33:15;94463.41;;;10.36;100.00
57606;BME280;43430;48.204;11.556;2022-09-27T00:35:41;94451.53;;;10.38;100.00
57606;BME280;43430;48.204;11.556;2022-09-27T00:38:07;94449.94;;;10.32;100.00
57606;BME280;43430;48.204;11.556;2022-09-27T00:40:32;94446.22;;;10.28;100.00
57606;BME280;43430;48.204;11.556;2022-09-27T00:42:58;94447.25;;;10.22;100.00
57606;BME280;43430;48.204;11.556;2022-09-27T00:45:23;94442.50;;;10.19;100.00
57606;BME280;43430;48.204;11.556;2022-09-27T00:47:56;94449.28;;;10.10;100.00
57606;BME280;43430;48.204;11.556;2022-09-27T00:50:29;94432.66;;;10.04;100.00
57606;BME280;43430;48.204;11.556;2022-09-27T00:55:39;94436.06;;;9.99;100.00
57606;BME280;43430;48.204;11.556;2022-09-27T00:58:05;94439.75;;;9.98;100.00
57606;BME280;43430;48.204;11.556;2022-09-27T01:00:31;94440.28;;;10.01;100.00
57606;BME280;43430;48.204;11.556;2022-09-27T01:02:57;94450.03;;;10.00;100.00
57606;BME280;43430;48.204;11.556;2022-09-27T01:05:26;94436.78;;;9.85;100.00
57606;BME280;43430;48.204;11.556;2022-09-27T01:07:52;94441.22;;;9.79;100.00
57606;BME280;43430;48.204;11.556;2022-09-27T01:10:22;94435.94;;;9.79;100.00
57606;BME280;43430;48.204;11.556;2022-09-27T01:15:41;94437.50;;;9.75;100.00
57606;BME280;43430;48.204;11.556;2022-09-27T01:18:29;94438.53;;;9.69;100.00
57606;BME280;43430;48.204;11.556;2022-09-27T01:21:14;94430.81;;;9.57;100.00
57606;BME280;43430;48.204;11.556;2022-09-27T01:29:56;94425.78;;;9.56;100.00
57606;BME280;43430;48.204;11.556;2022-09-27T01:32:35;94428.72;;;9.59;100.00
57606;BME280;43430;48.204;11.556;2022-09-27T01:43:02;94414.53;;;9.60;100.00
57606;BME280;43430;48.204;11.556;2022-09-27T01:45:37;94419.25;;;9.58;100.00
57606;BME280;43430;48.204;11.556;2022-09-27T01:48:10;94421.31;;;9.56;100.00
57606;BME280;43430;48.204;11.556;2022-09-27T01:53:39;94417.03;;;9.45;100.00
57606;BME280;43430;48.204;11.556;2022-09-27T01:56:10;94420.19;;;9.42;100.00
57606;BME280;43430;48.204;11.556;2022-09-27T01:58:54;94416.47;;;9.38;100.00
57606;BME280;43430;48.204;11.556;2022-09-27T02:01:21;94416.69;;;9.31;100.00
57606;BME280;43430;48.204;11.556;2022-09-27T02:03:49;94425.13;;;9.33;100.00
57606;BME280;43430;48.204;11.556;2022-09-27T02:06:24;94430.13;;;9.35;100.00
57606;BME280;43430;48.204;11.556;2022-09-27T02:09:14;94423.22;;;9.28;100.00
57606;BME280;43430;48.204;11.556;2022-09-27T02:11:47;94419.78;;;9.23;100.00
57606;BME280;43430;48.204;11.556;2022-09-27T02:24:58;94458.59;;;9.11;100.00
57606;BME280;43430;48.204;11.556;2022-09-27T02:27:44;94455.63;;;9.02;100.00
57606;BME280;43430;48.204;11.556;2022-09-27T02:30:14;94465.88;;;9.03;100.00
57606;BME280;43430;48.204;11.556;2022-09-27T02:32:41;94462.16;;;8.99;100.00
57606;BME280;43430;48.204;11.556;2022-09-27T02:35:12;94450.81;;;8.94;100.00
57606;BME280;43430;48.204;11.556;2022-09-27T02:37:39;94459.78;;;8.98;100.00
57606;BME280;43430;48.204;11.556;2022-09-27T02:40:05;94466.84;;;8.92;100.00
57606;BME280;43430;48.204;11.556;2022-09-27T02:42:31;94456.03;;;8.89;100.00
57606;BME280;43430;48.204;11.556;2022-09-27T02:44:57;94448.38;;;8.87;100.00
57606;BME280;43430;48.204;11.556;2022-09-27T02:47:43;94452.34;;;8.90;100.00
57606;BME280;43430;48.204;11.556;2022-09-27T02:53:11;94456.81;;;8.89;100.00
57606;BME280;43430;48.204;11.556;2022-09-27T03:03:31;94447.38;;;8.93;100.00
57606;BME280;43430;48.204;11.556;2022-09-27T03:06:07;94440.78;;;8.91;100.00
57606;BME280;43430;48.204;11.556;2022-09-27T03:08:36;94441.28;;;8.88;100.00
57606;BME280;43430;48.204;11.556;2022-09-27T03:11:01;94429.97;;;8.87;100.00
57606;BME280;43430;48.204;11.556;2022-09-27T03:13:27;94431.81;;;8.87;100.00
57606;BME280;43430;48.204;11.556;2022-09-27T03:15:52;94430.22;;;8.86;100.00
57606;BME280;43430;48.204;11.556;2022-09-27T03:18:18;94425.22;;;8.84;100.00
57606;BME280;43430;48.204;11.556;2022-09-27T03:20:43;94431.50;;;8.83;100.00
57606;BME280;43430;48.204;11.556;2022-09-27T03:23:09;94417.22;;;8.74;100.00
57606;BME280;43430;48.204;11.556;2022-09-27T03:25:34;94424.88;;;8.75;100.00
57606;BME280;43430;48.204;11.556;2022-09-27T03:28:00;94421.16;;;8.71;100.00
57606;BME280;43430;48.204;11.556;2022-09-27T03:30:25;94426.22;;;8.78;100.00
57606;BME280;43430;48.204;11.556;2022-09-27T03:32:51;94418.06;;;8.79;100.00
57606;BME280;43430;48.204;11.556;2022-09-27T03:35:16;94417.88;;;8.86;100.00
57606;BME280;43430;48.204;11.556;2022-09-27T03:37:41;94413.38;;;8.82;100.00
57606;BME280;43430;48.204;11.556;2022-09-27T03:40:08;94414.47;;;8.86;100.00
57606;BME280;43430;48.204;11.556;2022-09-27T03:42:34;94404.72;;;8.81;100.00
57606;BME280;43430;48.204;11.556;2022-09-27T03:44:59;94396.81;;;8.81;100.00
57606;BME280;43430;48.204;11.556;2022-09-27T03:47:24;94404.75;;;8.86;100.00
57606;BME280;43430;48.204;11.556;2022-09-27T03:49:50;94406.56;;;8.86;100.00
57606;BME280;43430;48.204;11.556;2022-09-27T03:52:15;94399.47;;;8.86;100.00
57606;BME280;43430;48.204;11.556;2022-09-27T03:54:43;94399.22;;;8.88;100.00
57606;BME280;43430;48.204;11.556;2022-09-27T03:57:08;94402.97;;;8.92;100.00
57606;BME280;43430;48.204;11.556;2022-09-27T03:59:34;94400.56;;;8.90;100.00
57606;BME280;43430;48.204;11.556;2022-09-27T04:01:59;94392.44;;;8.92;100.00
57606;BME280;43430;48.204;11.556;2022-09-27T04:04:24;94385.09;;;8.94;100.00
57606;BME280;43430;48.204;11.556;2022-09-27T04:06:50;94383.44;;;8.88;100.00
57606;BME280;43430;48.204;11.556;2022-09-27T04:09:15;94374.47;;;8.84;100.00
57606;BME280;43430;48.204;11.556;2022-09-27T04:11:40;94361.59;;;8.82;100.00
57606;BME280;43430;48.204;11.556;2022-09-27T04:14:06;94357.94;;;8.83;100.00
57606;BME280;43430;48.204;11.556;2022-09-27T04:16:33;94355.56;;;8.82;100.00
57606;BME280;43430;48.204;11.556;2022-09-27T04:18:58;94348.50;;;8.87;100.00
57606;BME280;43430;48.204;11.556;2022-09-27T04:21:25;94364.25;;;8.87;100.00
57606;BME280;43430;48.204;11.556;2022-09-27T04:23:50;94362.97;;;8.90;100.00
57606;BME280;43430;48.204;11.556;2022-09-27T04:26:16;94369.00;;;8.85;100.00
57606;BME280;43430;48.204;11.556;2022-09-27T04:28:41;94369.28;;;8.89;100.00
57606;BME280;43430;48.204;11.556;2022-09-27T04:31:06;94374.75;;;8.82;100.00
57606;BME280;43430;48.204;11.556;2022-09-27T04:33:32;94367.66;;;8.83;100.00
57606;BME280;43430;48.204;11.556;2022-09-27T04:35:57;94369.72;;;8.80;100.00
57606;BME280;43430;48.204;11.556;2022-09-27T04:38:41;94374.47;;;8.84;100.00
57606;BME280;43430;48.204;11.556;2022-09-27T04:41:07;94358.47;;;8.85;100.00
57606;BME280;43430;48.204;11.556;2022-09-27T04:43:33;94366.09;;;8.87;100.00
57606;BME280;43430;48.204;11.556;2022-09-27T04:45:58;94357.44;;;8.86;100.00
57606;BME280;43430;48.204;11.556;2022-09-27T04:48:23;94352.97;;;8.87;100.00
57606;BME280;43430;48.204;11.556;2022-09-27T04:51:00;94359.28;;;8.86;100.00
57606;BME280;43430;48.204;11.556;2022-09-27T04:53:27;94365.50;;;8.79;100.00
57606;BME280;43430;48.204;11.556;2022-09-27T04:55:54;94373.91;;;8.76;100.00
57606;BME280;43430;48.204;11.556;2022-09-27T04:58:23;94374.19;;;8.80;100.00
57606;BME280;43430;48.204;11.556;2022-09-27T05:00:49;94374.97;;;8.80;100.00
57606;BME280;43430;48.204;11.556;2022-09-27T05:03:20;94381.56;;;8.78;100.00
57606;BME280;43430;48.204;11.556;2022-09-27T05:05:45;94379.94;;;8.77;100.00
57606;BME280;43430;48.204;11.556;2022-09-27T05:08:11;94373.91;;;8.76;100.00
57606;BME280;43430;48.204;11.556;2022-09-27T05:10:36;94385.50;;;8.80;100.00
57606;BME280;43430;48.204;11.556;2022-09-27T05:13:02;94376.78;;;8.75;100.00
57606;BME280;43430;48.204;11.556;2022-09-27T05:15:27;94385.69;;;8.74;100.00
57606;BME280;43430;48.204;11.556;2022-09-27T05:17:53;94384.66;;;8.75;100.00
57606;BME280;43430;48.204;11.556;2022-09-27T05:20:18;94385.19;;;8.77;100.00
57606;BME280;43430;48.204;11.556;2022-09-27T05:22:44;94385.75;;;8.79;100.00
57606;BME280;43430;48.204;11.556;2022-09-27T05:25:10;94388.38;;;8.79;100.00
57606;BME280;43430;48.204;11.556;2022-09-27T05:27:35;94395.72;;;8.77;100.00
57606;BME280;43430;48.204;11.556;2022-09-27T05:30:01;94406.78;;;8.79;100.00
57606;BME280;43430;48.204;11.556;2022-09-27T05:32:27;94409.69;;;8.83;100.00
57606;BME280;43430;48.204;11.556;2022-09-27T05:34:53;94405.22;;;8.83;100.00
57606;BME280;43430;48.204;11.556;2022-09-27T05:37:19;94408.41;;;8.85;100.00
57606;BME280;43430;48.204;11.556;2022-09-27T05:39:44;94402.41;;;8.90;100.00
57606;BME280;43430;48.204;11.556;2022-09-27T05:42:10;94387.91;;;8.87;100.00
57606;BME280;43430;48.204;11.556;2022-09-27T05:44:36;94388.97;;;8.86;100.00
57606;BME280;43430;48.204;11.556;2022-09-27T05:47:03;94382.63;;;8.82;100.00
57606;BME280;43430;48.204;11.556;2022-09-27T05:49:30;94389.47;;;8.83;100.00
57606;BME280;43430;48.204;11.556;2022-09-27T05:51:55;94392.34;;;8.82;100.00
57606;BME280;43430;48.204;11.556;2022-09-27T05:54:21;94394.13;;;8.76;100.00
57606;BME280;43430;48.204;11.556;2022-09-27T05:56:46;94399.38;;;8.76;100.00
57606;BME280;43430;48.204;11.556;2022-09-27T05:59:12;94403.00;;;8.70;100.00
57606;BME280;43430;48.204;11.556;2022-09-27T06:01:37;94401.16;;;8.70;100.00
57606;BME280;43430;48.204;11.556;2022-09-27T06:04:03;94394.59;;;8.68;100.00
57606;BME280;43430;48.204;11.556;2022-09-27T06:06:30;94397.22;;;8.68;100.00
57606;BME280;43430;48.204;11.556;2022-09-27T06:08:55;94404.09;;;8.74;100.00
57606;BME280;43430;48.204;11.556;2022-09-27T06:11:21;94409.16;;;8.80;100.00
57606;BME280;43430;48.204;11.556;2022-09-27T06:13:47;94404.59;;;8.71;100.00
57606;BME280;43430;48.204;11.556;2022-09-27T06:16:12;94404.53;;;8.66;100.00
57606;BME280;43430;48.204;11.556;2022-09-27T06:18:38;94406.69;;;8.69;100.00
57606;BME280;43430;48.204;11.556;2022-09-27T06:21:04;94409.13;;;8.75;100.00
57606;BME280;43430;48.204;11.556;2022-09-27T06:23:30;94400.97;;;8.77;100.00
57606;BME280;43430;48.204;11.556;2022-09-27T06:26:00;94410.69;;;8.76;100.00
57606;BME280;43430;48.204;11.556;2022-09-27T06:28:26;94424.09;;;8.75;100.00
57606;BME280;43430;48.204;11.556;2022-09-27T06:30:51;94412.22;;;8.72;100.00
57606;BME280;43430;48.204;11.556;2022-09-27T06:33:18;94423.00;;;8.71;100.00
57606;BME280;43430;48.204;11.556;2022-09-27T06:35:45;94429.34;;;8.75;100.00
57606;BME280;43430;48.204;11.556;2022-09-27T06:38:12;94425.94;;;8.74;100.00
57606;BME280;43430;48.204;11.556;2022-09-27T06:40:40;94426.72;;;8.75;100.00
57606;BME280;43430;48.204;11.556;2022-09-27T06:43:10;94433.06;;;8.79;100.00
57606;BME280;43430;48.204;11.556;2022-09-27T06:45:36;94440.00;;;8.90;100.00
57606;BME280;43430;48.204;11.556;2022-09-27T06:48:03;94445.06;;;8.97;100.00
57606;BME280;43430;48.204;11.556;2022-09-27T06:50:33;94455.22;;;8.88;100.00
57606;BME280;43430;48.204;11.556;2022-09-27T06:52:59;94455.47;;;8.87;100.00
57606;BME280;43430;48.204;11.556;2022-09-27T06:55:25;94473.06;;;8.86;100.00
57606;BME280;43430;48.204;11.556;2022-09-27T06:57:54;94460.03;;;8.96;100.00
57606;BME280;43430;48.204;11.556;2022-09-27T07:00:38;94450.91;;;9.04;100.00
57606;BME280;43430;48.204;11.556;2022-09-27T07:03:03;94448.56;;;9.08;100.00
57606;BME280;43430;48.204;11.556;2022-09-27T07:05:29;94457.59;;;9.17;100.00
57606;BME280;43430;48.204;11.556;2022-09-27T07:07:56;94457.34;;;9.18;100.00
57606;BME280;43430;48.204;11.556;2022-09-27T07:10:27;94460.34;;;9.32;100.00
57606;BME280;43430;48.204;11.556;2022-09-27T07:12:53;94455.63;;;9.34;100.00
57606;BME280;43430;48.204;11.556;2022-09-27T07:15:19;94467.25;;;9.38;100.00
57606;BME280;43430;48.204;11.556;2022-09-27T07:17:46;94451.72;;;9.37;100.00
57606;BME280;43430;48.204;11.556;2022-09-27T07:20:12;94449.09;;;9.42;100.00
57606;BME280;43430;48.204;11.556;2022-09-27T07:22:40;94450.47;;;9.49;100.00
57606;BME280;43430;48.204;11.556;2022-09-27T07:25:07;94445.78;;;9.51;100.00
57606;BME280;43430;48.204;11.556;2022-09-27T07:27:33;94450.81;;;9.58;100.00
57606;BME280;43430;48.204;11.556;2022-09-27T07:29:59;94450.88;;;9.68;100.00
57606;BME280;43430;48.204;11.556;2022-09-27T07:32:25;94449.66;;;9.81;100.00
57606;BME280;43430;48.204;11.556;2022-09-27T07:34:50;94446.19;;;9.75;100.00
57606;BME280;43430;48.204;11.556;2022-09-27T07:37:16;94445.91;;;9.72;100.00
57606;BME280;43430;48.204;11.556;2022-09-27T07:39:42;94443.59;;;9.81;100.00
57606;BME280;43430;48.204;11.556;2022-09-27T07:42:07;94445.72;;;9.84;100.00
57606;BME280;43430;48.204;11.556;2022-09-27T07:44:33;94456.44;;;9.72;100.00
57606;BME280;43430;48.204;11.556;2022-09-27T07:46:58;94453.47;;;9.63;100.00
57606;BME280;43430;48.204;11.556;2022-09-27T07:49:23;94457.22;;;9.67;100.00
57606;BME280;43430;48.204;11.556;2022-09-27T07:51:49;94457.56;;;9.81;100.00
57606;BME280;43430;48.204;11.556;2022-09-27T07:54:15;94458.34;;;9.82;100.00
57606;BME280;43430;48.204;11.556;2022-09-27T07:56:41;94458.88;;;9.84;100.00
57606;BME280;43430;48.204;11.556;2022-09-27T07:59:06;94450.03;;;10.00;100.00
57606;BME280;43430;48.204;11.556;2022-09-27T08:01:32;94445.72;;;10.31;100.00
57606;BME280;43430;48.204;11.556;2022-09-27T08:03:59;94466.84;;;10.36;100.00
57606;BME280;43430;48.204;11.556;2022-09-27T08:06:25;94525.28;;;9.59;100.00
57606;BME280;43430;48.204;11.556;2022-09-27T08:08:50;94554.53;;;8.25;100.00
57606;BME280;43430;48.204;11.556;2022-09-27T08:11:17;94576.09;;;7.43;100.00
57606;BME280;43430;48.204;11.556;2022-09-27T08:13:44;94591.63;;;7.16;100.00
57606;BME280;43430;48.204;11.556;2022-09-27T08:16:10;94605.34;;;7.06;100.00
57606;BME280;43430;48.204;11.556;2022-09-27T08:18:36;94614.31;;;7.10;100.00
57606;BME280;43430;48.204;11.556;2022-09-27T08:21:01;94620.69;;;7.14;100.00
57606;BME280;43430;48.204;11.556;2022-09-27T08:23:27;94619.19;;;7.19;100.00
57606;BME280;43430;48.204;11.556;2022-09-27T08:25:53;94618.38;;;7.30;100.00
57606;BME280;43430;48.204;11.556;2022-09-27T08:28:19;94626.59;;;7.50;100.00
57606;BME280;43430;48.204;11.556;2022-09-27T08:30:50;94630.03;;;7.68;100.00
57606;BME280;43430;48.204;11.556;2022-09-27T08:33:16;94623.63;;;7.92;100.00
57606;BME280;43430;48.204;11.556;2022-09-27T08:35:41;94610.50;;;8.09;100.00
57606;BME280;43430;48.204;11.556;2022-09-27T08:38:08;94619.56;;;8.18;100.00
57606;BME280;43430;48.204;11.556;2022-09-27T08:48:25;94607.00;;;8.03;100.00
57606;BME280;43430;48.204;11.556;2022-09-27T08:50:51;94624.50;;;8.15;100.00
57606;BME280;43430;48.204;11.556;2022-09-27T08:53:21;94609.19;;;8.28;100.00
57606;BME280;43430;48.204;11.556;2022-09-27T08:55:52;94590.91;;;8.33;100.00
57606;BME280;43430;48.204;11.556;2022-09-27T08:58:24;94601.09;;;8.47;100.00
57606;BME280;43430;48.204;11.556;2022-09-27T09:00:52;94609.56;;;8.71;100.00
57606;BME280;43430;48.204;11.556;2022-09-27T09:03:22;94601.94;;;8.91;100.00
57606;BME280;43430;48.204;11.556;2022-09-27T09:17:09;94589.75;;;8.63;100.00
57606;BME280;43430;48.204;11.556;2022-09-27T09:19:54;94594.16;;;8.58;100.00
57606;BME280;43430;48.204;11.556;2022-09-27T09:25:28;94580.69;;;8.98;100.00
57606;BME280;43430;48.204;11.556;2022-09-27T09:30:56;94555.63;;;9.39;100.00
57606;BME280;43430;48.204;11.556;2022-09-27T09:33:31;94567.25;;;9.43;100.00
57606;BME280;43430;48.204;11.556;2022-09-27T09:45:58;94565.53;;;9.27;100.00
57606;BME280;43430;48.204;11.556;2022-09-27T09:48:35;94567.84;;;9.23;100.00
57606;BME280;43430;48.204;11.556;2022-09-27T09:51:05;94569.53;;;9.35;100.00
57606;BME280;43430;48.204;11.556;2022-09-27T09:53:44;94561.34;;;9.31;100.00
57606;BME280;43430;48.204;11.556;2022-09-27T09:56:30;94575.59;;;9.35;100.00
57606;BME280;43430;48.204;11.556;2022-09-27T09:58:59;94570.13;;;9.42;100.00
57606;BME280;43430;48.204;11.556;2022-09-27T10:01:31;94564.22;;;9.57;100.00
57606;BME280;43430;48.204;11.556;2022-09-27T10:03:58;94553.19;;;9.60;100.00
57606;BME280;43430;48.204;11.556;2022-09-27T10:06:24;94560.66;;;9.73;100.00
57606;BME280;43430;48.204;11.556;2022-09-27T10:08:51;94556.41;;;9.67;100.00
57606;BME280;43430;48.204;11.556;2022-09-27T10:11:23;94557.63;;;9.54;100.00
57606;BME280;43430;48.204;11.556;2022-09-27T10:13:49;94570.53;;;9.56;100.00
57606;BME280;43430;48.204;11.556;2022-09-27T10:16:17;94574.03;;;9.66;100.00
57606;BME280;43430;48.204;11.556;2022-09-27T10:18:43;94568.72;;;9.93;100.00
57606;BME280;43430;48.204;11.556;2022-09-27T10:21:18;94576.38;;;9.95;100.00
57606;BME280;43430;48.204;11.556;2022-09-27T10:26:29;94569.81;;;9.97;100.00
57606;BME280;43430;48.204;11.556;2022-09-27T10:28:54;94568.38;;;10.17;100.00
57606;BME280;43430;48.204;11.556;2022-09-27T10:31:20;94567.81;;;10.15;100.00
57606;BME280;43430;48.204;11.556;2022-09-27T10:36:25;94569.34;;;10.06;100.00
57606;BME280;43430;48.204;11.556;2022-09-27T10:38:53;94576.25;;;10.12;100.00
57606;BME280;43430;48.204;11.556;2022-09-27T10:43:55;94576.19;;;10.07;100.00
57606;BME280;43430;48.204;11.556;2022-09-27T10:46:32;94594.63;;;10.02;100.00
57606;BME280;43430;48.204;11.556;2022-09-27T10:51:54;94577.59;;;9.82;100.00
57606;BME280;43430;48.204;11.556;2022-09-27T10:54:23;94585.00;;;9.85;100.00
57606;BME280;43430;48.204;11.556;2022-09-27T10:57:01;94576.53;;;9.83;100.00
57606;BME280;43430;48.204;11.556;2022-09-27T10:59:35;94569.31;;;10.01;100.00
57606;BME280;43430;48.204;11.556;2022-09-27T11:02:04;94572.84;;;10.16;100.00
57606;BME280;43430;48.204;11.556;2022-09-27T11:04:35;94566.63;;;10.28;100.00
57606;BME280;43430;48.204;11.556;2022-09-27T11:07:19;94565.84;;;10.32;100.00
57606;BME280;43430;48.204;11.556;2022-09-27T11:09:47;94574.06;;;10.36;100.00
57606;BME280;43430;48.204;11.556;2022-09-27T11:12:13;94580.06;;;10.26;100.00
57606;BME280;43430;48.204;11.556;2022-09-27T11:14:39;94586.81;;;10.17;100.00
57606;BME280;43430;48.204;11.556;2022-09-27T11:28:11;94685.78;;;7.75;100.00
57606;BME280;43430;48.204;11.556;2022-09-27T11:36:16;94690.75;;;7.88;100.00
57606;BME280;43430;48.204;11.556;2022-09-27T11:46:34;94635.69;;;8.99;100.00
57606;BME280;43430;48.204;11.556;2022-09-27T11:49:24;94633.22;;;9.15;100.00
57606;BME280;43430;48.204;11.556;2022-09-27T11:58:03;94628.28;;;8.74;100.00
57606;BME280;43430;48.204;11.556;2022-09-27T12:01:17;94627.00;;;8.60;100.00
57606;BME280;43430;48.204;11.556;2022-09-27T12:06:21;94662.03;;;8.32;100.00
57606;BME280;43430;48.204;11.556;2022-09-27T12:09:11;94685.41;;;7.83;100.00
57606;BME280;43430;48.204;11.556;2022-09-27T12:11:49;94699.91;;;7.17;100.00
57606;BME280;43430;48.204;11.556;2022-09-27T12:14:24;94716.09;;;7.13;100.00
57606;BME280;43430;48.204;11.556;2022-09-27T12:16:55;94736.22;;;7.25;100.00
57606;BME280;43430;48.204;11.556;2022-09-27T12:19:26;94717.44;;;7.16;100.00
57606;BME280;43430;48.204;11.556;2022-09-27T12:22:00;94706.34;;;7.26;100.00
57606;BME280;43430;48.204;11.556;2022-09-27T12:24:27;94719.38;;;7.61;100.00
57606;BME280;43430;48.204;11.556;2022-09-27T12:26:57;94731.63;;;8.01;100.00
57606;BME280;43430;48.204;11.556;2022-09-27T12:29:29;94722.28;;;8.22;100.00
57606;BME280;43430;48.204;11.556;2022-09-27T12:32:19;94703.38;;;8.37;100.00
57606;BME280;43430;48.204;11.556;2022-09-27T12:37:37;94688.41;;;8.20;100.00
57606;BME280;43430;48.204;11.556;2022-09-27T12:40:17;94688.97;;;8.39;100.00
57606;BME280;43430;48.204;11.556;2022-09-27T12:45:22;94664.94;;;8.86;100.00
57606;BME280;43430;48.204;11.556;2022-09-27T12:47:55;94670.53;;;9.12;100.00
57606;BME280;43430;48.204;11.556;2022-09-27T12:53:02;94626.63;;;8.90;100.00
57606;BME280;43430;48.204;11.556;2022-09-27T13:00:32;94644.78;;;9.14;100.00
57606;BME280;43430;48.204;11.556;2022-09-27T13:03:20;94634.94;;;9.26;100.00
57606;BME280;43430;48.204;11.556;2022-09-27T13:14:20;94630.09;;;9.67;100.00
57606;BME280;43430;48.204;11.556;2022-09-27T13:16:48;94593.41;;;9.87;100.00
57606;BME280;43430;48.204;11.556;2022-09-27T13:19:43;94578.31;;;9.72;100.00
57606;BME280;43430;48.204;11.556;2022-09-27T13:22:35;94581.34;;;9.59;100.00
57606;BME280;43430;48.204;11.556;2022-09-27T13:25:01;94592.50;;;9.71;100.00
57606;BME280;43430;48.204;11.556;2022-09-27T13:32:38;94548.53;;;10.04;100.00
57606;BME280;43430;48.204;11.556;2022-09-27T13:35:24;94562.16;;;10.28;100.00
57606;BME280;43430;48.204;11.556;2022-09-27T13:37:56;94529.44;;;10.24;100.00
57606;BME280;43430;48.204;11.556;2022-09-27T13:48:15;94538.44;;;10.28;100.00
57606;BME280;43430;48.204;11.556;2022-09-27T13:50:48;94546.69;;;10.42;100.00
57606;BME280;43430;48.204;11.556;2022-09-27T13:55:56;94538.84;;;10.15;100.00
57606;BME280;43430;48.204;11.556;2022-09-27T13:58:58;94548.88;;;10.18;100.00
57606;BME280;43430;48.204;11.556;2022-09-27T14:01:44;94543.53;;;10.08;100.00
57606;BME280;43430;48.204;11.556;2022-09-27T14:04:25;94541.03;;;9.86;100.00
57606;BME280;43430;48.204;11.556;2022-09-27T14:06:55;94543.59;;;9.75;100.00
57606;BME280;43430;48.204;11.556;2022-09-27T14:09:30;94552.94;;;9.61;100.00
57606;BME280;43430;48.204;11.556;2022-09-27T14:11:59;94548.44;;;9.57;100.00
57606;BME280;43430;48.204;11.556;2022-09-27T14:14:28;94546.09;;;9.60;100.00
57606;BME280;43430;48.204;11.556;2022-09-27T14:16:57;94541.44;;;9.72;100.00
57606;BME280;43430;48.204;11.556;2022-09-27T14:19:24;94554.13;;;9.75;100.00
57606;BME280;43430;48.204;11.556;2022-09-27T14:21:51;94545.22;;;9.82;100.00
57606;BME280;43430;48.204;11.556;2022-09-27T14:24:31;94542.91;;;9.90;100.00
57606;BME280;43430;48.204;11.556;2022-09-27T14:29:52;94555.22;;;10.17;100.00
57606;BME280;43430;48.204;11.556;2022-09-27T14:32:20;94561.66;;;10.31;100.00
57606;BME280;43430;48.204;11.556;2022-09-27T14:35:14;94562.25;;;10.43;100.00
57606;BME280;43430;48.204;11.556;2022-09-27T14:38:00;94546.63;;;10.32;100.00
57606;BME280;43430;48.204;11.556;2022-09-27T14:40:26;94570.38;;;10.05;100.00
57606;BME280;43430;48.204;11.556;2022-09-27T14:42:54;94561.03;;;9.87;100.00
57606;BME280;43430;48.204;11.556;2022-09-27T14:45:28;94561.75;;;9.77;100.00
57606;BME280;43430;48.204;11.556;2022-09-27T14:47:59;94577.22;;;9.68;100.00
57606;BME280;43430;48.204;11.556;2022-09-27T14:50:27;94577.13;;;9.58;100.00
57606;BME280;43430;48.204;11.556;2022-09-27T14:52:54;94569.44;;;9.51;100.00
57606;BME280;43430;48.204;11.556;2022-09-27T14:55:24;94566.63;;;9.63;100.00
57606;BME280;43430;48.204;11.556;2022-09-27T14:58:01;94560.22;;;9.81;100.00
57606;BME280;43430;48.204;11.556;2022-09-27T15:00:32;94558.19;;;9.93;100.00
57606;BME280;43430;48.204;11.556;2022-09-27T15:03:02;94566.97;;;10.04;100.00
57606;BME280;43430;48.204;11.556;2022-09-27T15:05:33;94567.75;;;10.05;100.00
57606;BME280;43430;48.204;11.556;2022-09-27T15:08:02;94556.34;;;9.94;100.00
57606;BME280;43430;48.204;11.556;2022-09-27T15:10:29;94555.56;;;9.93;100.00
57606;BME280;43430;48.204;11.556;2022-09-27T15:12:56;94556.13;;;10.01;100.00
57606;BME280;43430;48.204;11.556;2022-09-27T15:15:30;94558.78;;;10.01;100.00
57606;BME280;43430;48.204;11.556;2022-09-27T15:17:58;94550.41;;;10.09;100.00
57606;BME280;43430;48.204;11.556;2022-09-27T15:20:31;94557.28;;;10.15;100.00
57606;BME280;43430;48.204;11.556;2022-09-27T15:22:59;94547.78;;;10.09;100.00
57606;BME280;43430;48.204;11.556;2022-09-27T15:28:00;94566.09;;;9.93;100.00
57606;BME280;43430;48.204;11.556;2022-09-27T15:30:33;94563.94;;;9.85;100.00
57606;BME280;43430;48.204;11.556;2022-09-27T15:32:59;94561.81;;;9.82;100.00
57606;BME280;43430;48.204;11.556;2022-09-27T15:35:29;94550.19;;;9.78;100.00
57606;BME280;43430;48.204;11.556;2022-09-27T15:43:26;94562.56;;;9.78;100.00
57606;BME280;43430;48.204;11.556;2022-09-27T15:45:58;94559.03;;;9.67;100.00
57606;BME280;43430;48.204;11.556;2022-09-27T15:48:26;94555.72;;;9.49;100.00
57606;BME280;43430;48.204;11.556;2022-09-27T15:50:52;94565.22;;;9.50;100.00